sensor_id;sensor_type;location;lat;lon;timestamp;temperature;humidity
24085;DHT22;12268;52.110;5.548;2023-04-06T09:22:43;13.00;99.40
24085;DHT22;12268;52.110;5.548;2023-04-06T09:41:40;14.30;98.20
24085;DHT22;12268;52.110;5.548;2023-04-06T14:55:19;10.30;99.90
24085;DHT22;12268;52.110;5.548;2023-04-06T14:57:44;10.40;99.90
24085;DHT22;12268;52.110;5.548;2023-04-06T15:00:10;10.50;99.90
24085;DHT22;12268;52.110;5.548;2023-04-06T15:02:36;10.40;99.90
24085;DHT22;12268;52.110;5.548;2023-04-06T15:05:02;10.40;99.90
24085;DHT22;12268;52.110;5.548;2023-04-06T15:07:28;10.10;99.90
24085;DHT22;12268;52.110;5.548;2023-04-06T15:09:54;10.20;99.90
24085;DHT22;12268;52.110;5.548;2023-04-06T15:12:19;10.20;99.90
24085;DHT22;12268;52.110;5.548;2023-04-06T15:14:45;10.00;99.90
24085;DHT22;12268;52.110;5.548;2023-04-06T15:17:10;9.90;99.90
24085;DHT22;12268;52.110;5.548;2023-04-06T15:19:36;10.20;99.90
24085;DHT22;12268;52.110;5.548;2023-04-06T15:22:01;10.50;99.90
24085;DHT22;12268;52.110;5.548;2023-04-06T15:24:27;10.20;99.90
24085;DHT22;12268;52.110;5.548;2023-04-06T15:26:52;10.20;99.90
24085;DHT22;12268;52.110;5.548;2023-04-06T15:29:18;10.50;99.90
24085;DHT22;12268;52.110;5.548;2023-04-06T15:31:43;10.60;99.90
24085;DHT22;12268;52.110;5.548;2023-04-06T15:34:09;10.60;99.90
24085;DHT22;12268;52.110;5.548;2023-04-06T15:36:35;10.70;99.90
24085;DHT22;12268;52.110;5.548;2023-04-06T15:39:01;10.70;99.90
24085;DHT22;12268;52.110;5.548;2023-04-06T15:41:27;10.60;99.90
24085;DHT22;12268;52.110;5.548;2023-04-06T15:43:53;10.80;99.90
24085;DHT22;12268;52.110;5.548;2023-04-06T15:46:20;10.90;99.90
24085;DHT22;12268;52.110;5.548;2023-04-06T15:48:46;11.10;99.90
24085;DHT22;12268;52.110;5.548;2023-04-06T15:51:12;11.00;99.90
24085;DHT22;12268;52.110;5.548;2023-04-06T15:53:38;10.80;99.90
24085;DHT22;12268;52.110;5.548;2023-04-06T15:56:05;10.50;99.90
24085;DHT22;12268;52.110;5.548;2023-04-06T15:58:35;10.50;99.90
24085;DHT22;12268;52.110;5.548;2023-04-06T16:01:00;10.60;99.90
24085;DHT22;12268;52.110;5.548;2023-04-06T16:03:26;10.70;99.90
24085;DHT22;12268;52.110;5.548;2023-04-06T16:05:53;10.70;99.90
24085;DHT22;12268;52.110;5.548;2023-04-06T16:08:18;10.80;99.90
24085;DHT22;12268;52.110;5.548;2023-04-06T16:10:44;10.80;99.90
24085;DHT22;12268;52.110;5.548;2023-04-06T16:13:10;10.80;99.90
24085;DHT22;12268;52.110;5.548;2023-04-06T16:15:36;10.60;99.90
24085;DHT22;12268;52.110;5.548;2023-04-06T16:18:01;10.60;99.90
24085;DHT22;12268;52.110;5.548;2023-04-06T16:20:29;10.60;99.90
24085;DHT22;12268;52.110;5.548;2023-04-06T16:22:55;10.60;99.90
24085;DHT22;12268;52.110;5.548;2023-04-06T16:25:21;10.40;99.90
24085;DHT22;12268;52.110;5.548;2023-04-06T16:27:46;10.10;99.90
24085;DHT22;12268;52.110;5.548;2023-04-06T16:30:12;9.90;99.90
24085;DHT22;12268;52.110;5.548;2023-04-06T16:32:38;9.90;99.90
24085;DHT22;12268;52.110;5.548;2023-04-06T16:35:04;10.00;99.90
24085;DHT22;12268;52.110;5.548;2023-04-06T16:37:30;9.80;99.90
24085;DHT22;12268;52.110;5.548;2023-04-06T16:39:56;9.90;99.90
24085;DHT22;12268;52.110;5.548;2023-04-06T16:42:21;9.80;99.90
24085;DHT22;12268;52.110;5.548;2023-04-06T16:44:47;9.90;99.90
24085;DHT22;12268;52.110;5.548;2023-04-06T16:47:16;9.90;99.90
24085;DHT22;12268;52.110;5.548;2023-04-06T16:49:43;9.80;99.90
24085;DHT22;12268;52.110;5.548;2023-04-06T16:52:09;9.90;99.90
24085;DHT22;12268;52.110;5.548;2023-04-06T16:54:34;10.00;99.90
24085;DHT22;12268;52.110;5.548;2023-04-06T16:57:00;10.20;99.90
24085;DHT22;12268;52.110;5.548;2023-04-06T16:59:27;10.10;99.90
24085;DHT22;12268;52.110;5.548;2023-04-06T17:01:52;10.10;99.90
24085;DHT22;12268;52.110;5.548;2023-04-06T17:04:18;10.00;99.90
24085;DHT22;12268;52.110;5.548;2023-04-06T17:06:43;10.10;99.90
24085;DHT22;12268;52.110;5.548;2023-04-06T17:09:09;10.30;99.90
24085;DHT22;12268;52.110;5.548;2023-04-06T17:11:35;10.50;99.90
24085;DHT22;12268;52.110;5.548;2023-04-06T17:14:01;10.80;99.90
24085;DHT22;12268;52.110;5.548;2023-04-06T17:16:26;10.90;99.90
24085;DHT22;12268;52.110;5.548;2023-04-06T17:18:52;10.80;99.90
24085;DHT22;12268;52.110;5.548;2023-04-06T17:21:18;10.70;99.90
24085;DHT22;12268;52.110;5.548;2023-04-06T17:23:45;10.90;99.90
24085;DHT22;12268;52.110;5.548;2023-04-06T17:26:11;10.90;99.90
24085;DHT22;12268;52.110;5.548;2023-04-06T17:28:37;10.90;99.90
24085;DHT22;12268;52.110;5.548;2023-04-06T17:31:06;10.50;99.90
24085;DHT22;12268;52.110;5.548;2023-04-06T17:33:32;10.50;99.90
24085;DHT22;12268;52.110;5.548;2023-04-06T17:35:59;10.50;99.90
24085;DHT22;12268;52.110;5.548;2023-04-06T17:38:25;10.40;99.90
24085;DHT22;12268;52.110;5.548;2023-04-06T17:40:50;10.00;99.90
24085;DHT22;12268;52.110;5.548;2023-04-06T17:43:16;10.00;99.90
24085;DHT22;12268;52.110;5.548;2023-04-06T17:45:42;9.90;99.90
24085;DHT22;12268;52.110;5.548;2023-04-06T17:48:08;10.20;99.90
24085;DHT22;12268;52.110;5.548;2023-04-06T17:50:36;10.40;99.90
24085;DHT22;12268;52.110;5.548;2023-04-06T17:53:03;10.30;99.90
24085;DHT22;12268;52.110;5.548;2023-04-06T17:55:29;10.30;99.90
24085;DHT22;12268;52.110;5.548;2023-04-06T17:57:55;10.10;99.90
24085;DHT22;12268;52.110;5.548;2023-04-06T18:00:21;10.20;99.90
24085;DHT22;12268;52.110;5.548;2023-04-06T18:02:49;10.20;99.90
24085;DHT22;12268;52.110;5.548;2023-04-06T18:05:17;10.00;99.90
24085;DHT22;12268;52.110;5.548;2023-04-06T18:07:42;10.10;99.90
24085;DHT22;12268;52.110;5.548;2023-04-06T18:10:08;10.30;99.90
24085;DHT22;12268;52.110;5.548;2023-04-06T18:12:34;10.60;99.90
24085;DHT22;12268;52.110;5.548;2023-04-06T18:14:59;10.70;99.90
24085;DHT22;12268;52.110;5.548;2023-04-06T18:17:25;10.80;99.90
24085;DHT22;12268;52.110;5.548;2023-04-06T18:19:51;10.80;99.90
24085;DHT22;12268;52.110;5.548;2023-04-06T18:22:16;10.70;99.90
24085;DHT22;12268;52.110;5.548;2023-04-06T18:24:43;10.60;99.90
24085;DHT22;12268;52.110;5.548;2023-04-06T18:27:09;10.70;99.90
24085;DHT22;12268;52.110;5.548;2023-04-06T18:29:35;10.80;99.90
24085;DHT22;12268;52.110;5.548;2023-04-06T18:32:01;10.90;99.90
24085;DHT22;12268;52.110;5.548;2023-04-06T18:34:26;11.00;99.90
24085;DHT22;12268;52.110;5.548;2023-04-06T18:36:52;10.90;99.90
24085;DHT22;12268;52.110;5.548;2023-04-06T18:39:17;11.00;99.90
24085;DHT22;12268;52.110;5.548;2023-04-06T18:41:44;11.00;99.90
24085;DHT22;12268;52.110;5.548;2023-04-06T18:44:09;10.90;99.90
24085;DHT22;12268;52.110;5.548;2023-04-06T18:46:35;10.50;99.90
24085;DHT22;12268;52.110;5.548;2023-04-06T18:49:03;10.40;99.90
24085;DHT22;12268;52.110;5.548;2023-04-06T18:51:29;10.40;99.90
24085;DHT22;12268;52.110;5.548;2023-04-06T18:53:55;10.60;99.90
24085;DHT22;12268;52.110;5.548;2023-04-06T18:56:21;10.80;99.90
24085;DHT22;12268;52.110;5.548;2023-04-06T18:58:47;10.70;99.90
24085;DHT22;12268;52.110;5.548;2023-04-06T19:01:39;10.80;99.90
24085;DHT22;12268;52.110;5.548;2023-04-06T19:04:08;10.70;99.90
24085;DHT22;12268;52.110;5.548;2023-04-06T19:06:35;10.50;99.90
24085;DHT22;12268;52.110;5.548;2023-04-06T19:09:00;10.50;99.90
24085;DHT22;12268;52.110;5.548;2023-04-06T19:11:29;10.50;99.90
24085;DHT22;12268;52.110;5.548;2023-04-06T19:13:55;10.60;99.90
24085;DHT22;12268;52.110;5.548;2023-04-06T19:16:21;10.80;99.90
24085;DHT22;12268;52.110;5.548;2023-04-06T19:18:46;10.90;99.90
24085;DHT22;12268;52.110;5.548;2023-04-06T19:21:22;10.60;99.90
24085;DHT22;12268;52.110;5.548;2023-04-06T19:23:50;11.00;99.90
24085;DHT22;12268;52.110;5.548;2023-04-06T19:26:17;11.00;99.90
24085;DHT22;12268;52.110;5.548;2023-04-06T19:28:44;11.20;99.90
24085;DHT22;12268;52.110;5.548;2023-04-06T19:31:11;11.20;99.90
24085;DHT22;12268;52.110;5.548;2023-04-06T19:33:37;11.00;99.90
24085;DHT22;12268;52.110;5.548;2023-04-06T19:36:03;11.10;99.90
24085;DHT22;12268;52.110;5.548;2023-04-06T19:38:30;11.30;99.90
24085;DHT22;12268;52.110;5.548;2023-04-06T19:40:57;11.40;99.90
24085;DHT22;12268;52.110;5.548;2023-04-06T19:43:22;11.40;99.90
24085;DHT22;12268;52.110;5.548;2023-04-06T19:45:48;11.60;99.90
24085;DHT22;12268;52.110;5.548;2023-04-06T19:48:14;11.50;99.90
24085;DHT22;12268;52.110;5.548;2023-04-06T19:50:40;11.80;99.90
24085;DHT22;12268;52.110;5.548;2023-04-06T19:53:05;11.70;99.90
24085;DHT22;12268;52.110;5.548;2023-04-06T19:55:33;11.60;99.90
24085;DHT22;12268;52.110;5.548;2023-04-06T19:57:58;11.80;99.90
24085;DHT22;12268;52.110;5.548;2023-04-06T20:00:24;11.90;99.90
24085;DHT22;12268;52.110;5.548;2023-04-06T20:02:49;11.90;99.90
24085;DHT22;12268;52.110;5.548;2023-04-06T20:05:15;12.00;99.90
24085;DHT22;12268;52.110;5.548;2023-04-06T20:07:41;12.20;99.90
24085;DHT22;12268;52.110;5.548;2023-04-06T20:10:06;12.20;99.90
24085;DHT22;12268;52.110;5.548;2023-04-06T20:12:34;12.30;99.90
24085;DHT22;12268;52.110;5.548;2023-04-06T20:14:59;12.20;99.90
24085;DHT22;12268;52.110;5.548;2023-04-06T20:17:25;12.00;99.90
24085;DHT22;12268;52.110;5.548;2023-04-06T20:19:51;12.00;99.90
24085;DHT22;12268;52.110;5.548;2023-04-06T20:22:18;12.00;99.90
24085;DHT22;12268;52.110;5.548;2023-04-06T20:24:43;11.90;99.90
24085;DHT22;12268;52.110;5.548;2023-04-06T20:27:09;12.00;99.90
24085;DHT22;12268;52.110;5.548;2023-04-06T20:29:35;12.00;99.90
24085;DHT22;12268;52.110;5.548;2023-04-06T20:32:00;12.00;99.90
24085;DHT22;12268;52.110;5.548;2023-04-06T20:34:26;11.90;99.90
24085;DHT22;12268;52.110;5.548;2023-04-06T20:36:56;12.00;99.90
24085;DHT22;12268;52.110;5.548;2023-04-06T20:39:23;12.00;99.90
24085;DHT22;12268;52.110;5.548;2023-04-06T20:41:50;12.00;99.90
24085;DHT22;12268;52.110;5.548;2023-04-06T20:44:16;12.20;99.90
24085;DHT22;12268;52.110;5.548;2023-04-06T20:46:42;12.30;99.90
24085;DHT22;12268;52.110;5.548;2023-04-06T20:49:11;12.30;99.90
24085;DHT22;12268;52.110;5.548;2023-04-06T20:51:36;12.30;99.90
24085;DHT22;12268;52.110;5.548;2023-04-06T20:54:03;12.30;99.90
24085;DHT22;12268;52.110;5.548;2023-04-06T20:56:28;12.30;99.90
24085;DHT22;12268;52.110;5.548;2023-04-06T20:58:55;12.10;99.90
24085;DHT22;12268;52.110;5.548;2023-04-06T21:01:21;12.10;99.90
24085;DHT22;12268;52.110;5.548;2023-04-06T21:03:48;12.20;99.90
24085;DHT22;12268;52.110;5.548;2023-04-06T21:06:13;12.30;99.90
24085;DHT22;12268;52.110;5.548;2023-04-06T21:08:40;12.20;99.90
24085;DHT22;12268;52.110;5.548;2023-04-06T21:11:05;12.20;99.90
24085;DHT22;12268;52.110;5.548;2023-04-06T21:13:31;12.30;99.90
24085;DHT22;12268;52.110;5.548;2023-04-06T21:15:57;12.30;99.90
24085;DHT22;12268;52.110;5.548;2023-04-06T21:18:23;12.40;99.90
24085;DHT22;12268;52.110;5.548;2023-04-06T21:20:49;12.50;99.90
24085;DHT22;12268;52.110;5.548;2023-04-06T21:23:14;12.50;99.90
24085;DHT22;12268;52.110;5.548;2023-04-06T21:25:40;12.50;99.90
24085;DHT22;12268;52.110;5.548;2023-04-06T21:28:06;12.60;99.90
24085;DHT22;12268;52.110;5.548;2023-04-06T21:30:31;12.50;99.90
24085;DHT22;12268;52.110;5.548;2023-04-06T21:33:04;12.70;99.90
24085;DHT22;12268;52.110;5.548;2023-04-06T21:35:30;12.80;99.90
24085;DHT22;12268;52.110;5.548;2023-04-06T21:37:56;12.80;99.90
24085;DHT22;12268;52.110;5.548;2023-04-06T21:40:21;12.70;99.90
24085;DHT22;12268;52.110;5.548;2023-04-06T21:42:47;12.80;99.90
24085;DHT22;12268;52.110;5.548;2023-04-06T21:45:12;12.70;99.90
24085;DHT22;12268;52.110;5.548;2023-04-06T21:47:38;12.60;99.90
24085;DHT22;12268;52.110;5.548;2023-04-06T21:50:04;12.80;99.90
24085;DHT22;12268;52.110;5.548;2023-04-06T21:52:30;12.70;99.90
24085;DHT22;12268;52.110;5.548;2023-04-06T21:54:56;12.60;99.90
24085;DHT22;12268;52.110;5.548;2023-04-06T21:57:21;12.80;99.90
24085;DHT22;12268;52.110;5.548;2023-04-06T21:59:47;12.70;99.90
24085;DHT22;12268;52.110;5.548;2023-04-06T22:02:13;12.60;99.90
24085;DHT22;12268;52.110;5.548;2023-04-06T22:04:38;12.40;99.90
24085;DHT22;12268;52.110;5.548;2023-04-06T22:07:04;12.40;99.90
24085;DHT22;12268;52.110;5.548;2023-04-06T22:09:30;12.50;99.90
24085;DHT22;12268;52.110;5.548;2023-04-06T22:11:56;12.60;99.90
24085;DHT22;12268;52.110;5.548;2023-04-06T22:14:21;12.70;99.90
24085;DHT22;12268;52.110;5.548;2023-04-06T22:16:47;12.80;99.90
24085;DHT22;12268;52.110;5.548;2023-04-06T22:19:13;12.50;99.90
24085;DHT22;12268;52.110;5.548;2023-04-06T22:21:38;12.40;99.90
24085;DHT22;12268;52.110;5.548;2023-04-06T22:24:04;12.40;99.90
24085;DHT22;12268;52.110;5.548;2023-04-06T22:26:30;12.40;99.90
24085;DHT22;12268;52.110;5.548;2023-04-06T22:28:56;12.30;99.90
24085;DHT22;12268;52.110;5.548;2023-04-06T22:31:21;12.40;99.90
24085;DHT22;12268;52.110;5.548;2023-04-06T22:33:47;12.50;99.90
24085;DHT22;12268;52.110;5.548;2023-04-06T22:36:12;12.40;99.90
24085;DHT22;12268;52.110;5.548;2023-04-06T22:38:38;12.50;99.90
24085;DHT22;12268;52.110;5.548;2023-04-06T22:41:03;12.50;99.90
24085;DHT22;12268;52.110;5.548;2023-04-06T22:43:29;12.50;99.90
24085;DHT22;12268;52.110;5.548;2023-04-06T22:45:54;12.60;99.90
24085;DHT22;12268;52.110;5.548;2023-04-06T22:48:20;12.60;99.90
24085;DHT22;12268;52.110;5.548;2023-04-06T22:50:46;12.70;99.90
24085;DHT22;12268;52.110;5.548;2023-04-06T22:53:12;12.70;99.90
24085;DHT22;12268;52.110;5.548;2023-04-06T22:55:40;12.70;99.90
24085;DHT22;12268;52.110;5.548;2023-04-06T22:58:06;12.60;99.90
24085;DHT22;12268;52.110;5.548;2023-04-06T23:00:32;12.50;99.90
24085;DHT22;12268;52.110;5.548;2023-04-06T23:02:57;12.40;99.90
24085;DHT22;12268;52.110;5.548;2023-04-06T23:05:23;12.40;99.90
24085;DHT22;12268;52.110;5.548;2023-04-06T23:07:49;12.40;99.90
24085;DHT22;12268;52.110;5.548;2023-04-06T23:10:18;12.40;99.90
24085;DHT22;12268;52.110;5.548;2023-04-06T23:12:45;12.50;99.90
24085;DHT22;12268;52.110;5.548;2023-04-06T23:15:11;12.60;99.90
24085;DHT22;12268;52.110;5.548;2023-04-06T23:17:37;12.80;99.90
24085;DHT22;12268;52.110;5.548;2023-04-06T23:20:03;12.70;99.90
24085;DHT22;12268;52.110;5.548;2023-04-06T23:22:28;12.80;99.90
24085;DHT22;12268;52.110;5.548;2023-04-06T23:24:54;12.70;99.90
24085;DHT22;12268;52.110;5.548;2023-04-06T23:27:19;12.60;99.90
24085;DHT22;12268;52.110;5.548;2023-04-06T23:29:45;12.50;99.90
24085;DHT22;12268;52.110;5.548;2023-04-06T23:32:11;12.60;99.90
24085;DHT22;12268;52.110;5.548;2023-04-06T23:34:36;12.60;99.90
24085;DHT22;12268;52.110;5.548;2023-04-06T23:37:02;12.70;99.90
24085;DHT22;12268;52.110;5.548;2023-04-06T23:39:30;12.70;99.90
24085;DHT22;12268;52.110;5.548;2023-04-06T23:41:56;12.70;99.90
24085;DHT22;12268;52.110;5.548;2023-04-06T23:44:22;12.70;99.90
24085;DHT22;12268;52.110;5.548;2023-04-06T23:46:49;12.70;99.90
24085;DHT22;12268;52.110;5.548;2023-04-06T23:49:15;12.70;99.90
24085;DHT22;12268;52.110;5.548;2023-04-06T23:51:41;12.80;99.90
24085;DHT22;12268;52.110;5.548;2023-04-06T23:54:06;12.80;99.90
24085;DHT22;12268;52.110;5.548;2023-04-06T23:56:32;12.80;99.90
24085;DHT22;12268;52.110;5.548;2023-04-06T23:58:57;12.70;99.90
